Mc Alester Regional Airport Mc Alester US
ICAO: KMLC
IATA: MLC
Category: Medium
Scheduled Services: No

Elevation: 770 ft
TransAlt. 18000 ft.

Airport Communications:
ASOS:135.125
FORT WORTH CNTR:132.2
RDO:122.65
CTAF/UNICOM:122.95

KMLC Zoom In..

Runways:

(A) RW 02 length 5602 ft width 100 ft
LOC 108.30 / hdg 14

(B) RW 20 length 5602 ft width 100 ft
LOC 108.30 / hdg 194

Location; KMLC
Day. 19 / Time. 03.53 Zulu
* Altimeter: 29.90
* Temperature: 27° c. 80.6°f.
* Wind from: 090° Speed 05 kn.
Dewpoint: 23° c.
Visibility: 10 Statute Miles.
Clouds: Clear (automated report).

KMLC 190353Z AUTO 09005KT 10SM CLR 27/23 A2990 RMK AO2 SLP113 T02670233


Wind From 090°
Speed 05 kn.

 
 
jpsmedia.com for Web Design worldairports.se 2018   terms of use